createdAt,value
2023-02-14T17:38:02.700Z,19.50
2023-02-14T17:39:03.600Z,19.68
2023-02-14T17:40:03.712Z,19.86
2023-02-14T17:41:03.745Z,20.04
2023-02-14T17:42:03.793Z,20.19
2023-02-14T17:43:03.805Z,20.34
2023-02-14T17:44:03.848Z,20.48
2023-02-14T17:45:03.797Z,20.60
2023-02-14T17:46:03.787Z,20.72
2023-02-14T17:47:03.851Z,20.83
2023-02-14T17:48:04.268Z,20.93
2023-02-14T17:49:03.838Z,21.01
2023-02-14T17:50:03.807Z,21.11
2023-02-14T17:51:03.919Z,21.18
2023-02-14T17:52:03.760Z,21.26
2023-02-14T17:53:03.800Z,21.33
2023-02-14T17:54:03.742Z,21.37
2023-02-14T17:55:03.749Z,21.45
2023-02-14T17:56:03.792Z,21.52
2023-02-14T17:57:03.710Z,21.56
2023-02-14T17:58:03.721Z,21.61
2023-02-14T17:59:03.747Z,21.66
2023-02-14T18:00:03.638Z,21.70
2023-02-14T18:01:03.570Z,21.74
2023-02-14T18:02:03.583Z,21.81
2023-02-14T18:03:03.520Z,21.83
2023-02-14T18:04:03.523Z,21.89
2023-02-14T18:05:03.579Z,21.93
2023-02-14T18:06:03.370Z,21.94
2023-02-14T18:07:03.388Z,21.99
2023-02-14T18:08:03.313Z,22.04
2023-02-14T18:09:03.262Z,22.06
2023-02-14T18:10:03.173Z,22.09
2023-02-14T18:11:03.295Z,22.11
2023-02-14T18:12:03.617Z,22.14
2023-02-14T18:13:03.084Z,22.17
2023-02-14T18:14:03.048Z,22.19
2023-02-14T18:15:03.014Z,22.21
2023-02-14T18:16:02.931Z,22.23
2023-02-14T18:17:02.897Z,22.27
2023-02-14T18:18:02.824Z,22.29
2023-02-14T18:19:02.777Z,22.31
2023-02-14T18:20:02.710Z,22.35
2023-02-14T18:21:03.027Z,22.35
2023-02-14T18:22:02.619Z,22.38
2023-02-14T18:23:02.530Z,22.41
2023-02-14T18:23:51.808Z,22.42
2023-02-14T18:24:59.547Z,22.45
2023-02-14T18:25:55.392Z,22.48
2023-02-14T18:26:52.992Z,22.51
2023-02-14T18:27:53.055Z,22.52
2023-02-14T18:28:53.144Z,22.52
2023-02-14T18:29:53.278Z,22.57
2023-02-14T18:30:53.412Z,22.57
2023-02-14T18:31:53.611Z,22.59
2023-02-14T18:32:53.510Z,22.60
2023-02-14T18:33:53.725Z,22.61
2023-02-14T18:34:53.798Z,22.63
2023-02-14T18:35:53.831Z,22.66
2023-02-14T18:36:53.869Z,22.66
2023-02-14T18:37:54.005Z,22.67
2023-02-14T18:38:54.142Z,22.67
2023-02-14T18:39:54.175Z,22.69
2023-02-14T18:40:54.261Z,22.72
2023-02-14T18:41:54.490Z,22.70
2023-02-14T18:42:54.492Z,22.72
2023-02-14T18:43:54.520Z,22.74
2023-02-14T18:44:54.771Z,22.76
2023-02-14T18:45:54.849Z,22.76
2023-02-14T18:46:54.809Z,22.78
2023-02-14T18:47:55.032Z,22.79
2023-02-14T18:48:55.060Z,22.79
2023-02-14T18:49:55.188Z,22.81
2023-02-14T18:50:55.175Z,22.82
2023-02-14T18:51:55.246Z,22.84
2023-02-14T18:52:55.314Z,22.85
2023-02-14T18:53:55.504Z,22.85
2023-02-14T18:54:55.582Z,22.86
2023-02-14T18:55:55.641Z,22.86
2023-02-14T18:56:55.641Z,22.88
2023-02-14T18:57:55.814Z,22.89
2023-02-14T18:58:55.858Z,22.91
2023-02-14T18:59:55.948Z,22.91
2023-02-14T19:00:55.963Z,22.93
2023-02-14T19:01:56.070Z,22.94
2023-02-14T19:02:56.189Z,22.94
2023-02-14T19:03:56.347Z,22.96
2023-02-14T19:04:56.393Z,22.96
2023-02-14T19:05:56.393Z,22.99
2023-02-14T19:06:56.510Z,22.99
2023-02-14T19:07:56.715Z,22.99
2023-02-14T19:08:56.900Z,23.01
2023-02-14T19:09:56.787Z,23.01
2023-02-14T19:10:56.808Z,23.03
2023-02-14T19:11:56.927Z,23.01
2023-02-14T19:12:48.227Z,23.033142
2023-02-14T19:13:48.252Z,23.043213
2023-02-14T19:14:48.173Z,23.043213
2023-02-14T19:15:48.165Z,23.073425
2023-02-14T19:16:48.129Z,23.073425
2023-02-14T19:17:48.037Z,23.073425
2023-02-14T19:18:48.060Z,23.093567
2023-02-14T19:19:47.990Z,23.113708
2023-02-14T19:20:47.968Z,23.113708
2023-02-14T19:21:47.966Z,23.123779
2023-02-14T19:22:47.919Z,23.143921
2023-02-14T19:23:47.899Z,23.143921
2023-02-14T19:24:47.763Z,23.143921
2023-02-14T19:25:47.826Z,23.153992
2023-02-14T19:26:47.833Z,23.164062
2023-02-14T19:27:47.775Z,23.184204
2023-02-14T19:28:47.713Z,23.184204
2023-02-14T19:29:47.683Z,23.184204
2023-02-14T19:30:47.572Z,23.194275
2023-02-14T19:31:47.525Z,23.214417
2023-02-14T19:32:47.522Z,23.214417
2023-02-14T19:33:47.550Z,23.214417
2023-02-14T19:34:47.486Z,23.224487
2023-02-14T19:35:47.463Z,23.224487
2023-02-14T19:36:47.382Z,23.224487
2023-02-14T19:37:47.334Z,23.224487
2023-02-14T19:38:47.376Z,23.234558
2023-02-14T19:39:47.325Z,23.234558
2023-02-14T19:40:47.235Z,23.234558
2023-02-14T19:41:47.211Z,23.2547
2023-02-14T19:42:47.133Z,23.2547
2023-02-14T19:43:47.113Z,23.2547
2023-02-14T19:44:47.094Z,23.2547
2023-02-14T19:45:48.057Z,23.2547
2023-02-14T19:46:47.043Z,23.264771
2023-02-14T19:47:47.967Z,23.294983
2023-02-14T19:48:46.921Z,23.305054
2023-02-14T19:49:46.889Z,23.305054
2023-02-14T19:50:25.589Z,23.31
2023-02-14T19:51:26.566Z,23.35
2023-02-14T19:52:27.214Z,23.35
2023-02-14T19:53:26.824Z,23.37
2023-02-14T19:54:27.014Z,23.38
2023-02-14T19:55:27.797Z,23.38
2023-02-14T19:56:27.145Z,23.38
2023-02-14T19:57:27.389Z,23.39
2023-02-14T19:58:27.494Z,23.41
2023-02-14T19:59:27.445Z,23.39
2023-02-14T20:00:59.509Z,23.39
2023-02-14T20:02:00.447Z,23.41
2023-02-14T20:03:00.408Z,23.42
2023-02-14T20:04:00.580Z,23.44
2023-02-14T20:05:00.682Z,23.42
2023-02-14T20:06:00.747Z,23.44
2023-02-14T20:07:00.963Z,23.42
2023-02-14T20:08:00.986Z,23.44
2023-02-14T20:09:01.122Z,23.42
2023-02-14T20:10:00.217Z,23.42
2023-02-14T20:11:00.613Z,23.42
2023-02-14T20:12:01.467Z,23.42
2023-02-14T20:13:01.607Z,23.41
2023-02-14T20:14:01.625Z,23.41
2023-02-14T20:15:01.889Z,23.39
2023-02-14T20:16:01.834Z,23.38
2023-02-14T20:17:02.129Z,23.39
2023-02-14T20:18:02.165Z,23.39
2023-02-14T20:19:02.187Z,23.37
2023-02-14T20:20:01.279Z,23.38
2023-02-14T20:21:01.743Z,23.35
